Terminal Aerodrome Forecast
Issued by NWS

Home | Current Version | Previous Version | Text Only | Print | Product List | Glossary On
Versions: 1 2 3 4 5 6 7 8 9 10 11 12 13
923
FTUS44 KEWX 051739
TAFSSF
TAF
KSSF 051739Z 0518/0618 VRB05KT P6SM SCT250
     FM061700 13006KT P6SM FEW250=

USA.gov is the U.S. government's official web portal to all federal, state and local government web resources and services.